Time;durP1;ratioP1;P1;durP2;ratioP2;P2;SDS_P1;SDS_P2;PMS_P1;PMS_P2;Temp;Humidity;BMP_temperature;BMP_pressure;BME280_temperature;BME280_humidity;BME280_pressure;Samples;Min_cycle;Max_cycle;Signal;HPM_P1;HPM_P2
2023/06/17 00:00:23;;;;;;;;;;;;;;;16.09;55.54;96468.13;5104605;28;19963;-70
2023/06/17 00:02:49;;;;;;;;;;;;;;;16.07;55.56;96463.09;5105706;28;19976;-78
2023/06/17 00:05:15;;;;;;;;;;;;;;;16.05;55.94;96456.47;5106107;28;19960;-78
2023/06/17 00:07:41;;;;;;;;;;;;;;;16.03;56.03;96452.22;5106106;28;20274;-78
2023/06/17 00:10:07;;;;;;;;;;;;;;;16.02;55.81;96452.44;5106127;28;19959;-77
2023/06/17 00:12:34;;;;;;;;;;;;;;;16.00;55.59;96455.38;5105544;28;19942;-77
2023/06/17 00:15:02;;;;;;;;;;;;;;;15.98;55.50;96457.47;5106065;28;19967;-78
2023/06/17 00:17:32;;;;;;;;;;;;;;;15.95;56.26;96457.16;5105557;28;19956;-78
2023/06/17 00:20:00;;;;;;;;;;;;;;;15.92;56.60;96452.41;5105860;28;20288;-75
2023/06/17 00:22:29;;;;;;;;;;;;;;;15.90;57.03;96446.56;5104284;28;20156;-78
2023/06/17 00:24:56;;;;;;;;;;;;;;;15.87;57.12;96444.41;5104328;28;19963;-78
2023/06/17 00:27:22;;;;;;;;;;;;;;;15.84;57.48;96448.34;5087279;28;19953;-77
2023/06/17 00:29:47;;;;;;;;;;;;;;;15.81;57.20;96443.53;5104355;28;20211;-78
2023/06/17 00:32:13;;;;;;;;;;;;;;;15.77;57.19;96443.28;5105651;28;19954;-78
2023/06/17 00:34:39;;;;;;;;;;;;;;;15.75;57.74;96439.28;5105479;28;19962;-77
2023/06/17 00:37:05;;;;;;;;;;;;;;;15.71;58.12;96441.59;5105639;28;19957;-72
2023/06/17 00:39:31;;;;;;;;;;;;;;;15.67;57.96;96434.41;5105140;28;19975;-71
2023/06/17 00:41:57;;;;;;;;;;;;;;;15.63;57.89;96437.56;5104216;28;20046;-77
2023/06/17 00:44:23;;;;;;;;;;;;;;;15.58;58.35;96432.22;5105500;28;19958;-77
2023/06/17 00:46:51;;;;;;;;;;;;;;;15.55;58.86;96437.19;5104982;28;19956;-77
2023/06/17 00:49:17;;;;;;;;;;;;;;;15.50;59.72;96437.16;5105350;28;19957;-77
2023/06/17 00:51:44;;;;;;;;;;;;;;;15.47;59.34;96429.72;5105058;28;20021;-77
2023/06/17 00:54:11;;;;;;;;;;;;;;;15.42;59.10;96438.41;5104969;28;19949;-77
2023/06/17 00:56:37;;;;;;;;;;;;;;;15.40;59.21;96430.72;5105297;28;19958;-71
2023/06/17 00:59:04;;;;;;;;;;;;;;;15.38;59.14;96434.66;5105073;28;19963;-77
2023/06/17 01:01:29;;;;;;;;;;;;;;;15.37;58.93;96438.34;5105070;28;19974;-77
2023/06/17 01:03:56;;;;;;;;;;;;;;;15.36;58.95;96450.75;5105089;28;19953;-77
2023/06/17 01:06:27;;;;;;;;;;;;;;;15.34;60.00;96447.56;5105106;28;19961;-77
2023/06/17 01:09:05;;;;;;;;;;;;;;;15.29;60.29;96444.88;5105248;28;19939;-77
2023/06/17 01:11:31;;;;;;;;;;;;;;;15.26;59.89;96442.72;5105063;28;20122;-77
2023/06/17 01:13:58;;;;;;;;;;;;;;;15.22;60.70;96446.88;5104394;28;19961;-70
2023/06/17 01:16:25;;;;;;;;;;;;;;;15.17;60.32;96438.91;5104983;28;20134;-77
2023/06/17 01:18:52;;;;;;;;;;;;;;;15.14;60.61;96431.47;5104922;28;19952;-78
2023/06/17 01:21:20;;;;;;;;;;;;;;;15.11;61.34;96431.97;5104855;28;19982;-77
2023/06/17 01:23:49;;;;;;;;;;;;;;;15.08;61.87;96432.50;5103481;28;20255;-77
2023/06/17 01:26:16;;;;;;;;;;;;;;;15.05;61.71;96435.59;5104863;28;19970;-77
2023/06/17 01:28:44;;;;;;;;;;;;;;;15.02;61.49;96436.91;5103446;28;20149;-78
2023/06/17 01:31:12;;;;;;;;;;;;;;;14.99;61.92;96434.75;5104728;28;19952;-78
2023/06/17 01:33:39;;;;;;;;;;;;;;;14.95;61.44;96431.00;5105076;28;19939;-70
2023/06/17 01:36:10;;;;;;;;;;;;;;;14.91;61.66;96433.34;5103754;28;20154;-72
2023/06/17 01:38:38;;;;;;;;;;;;;;;14.88;62.14;96420.63;5104744;28;19973;-72
2023/06/17 01:41:08;;;;;;;;;;;;;;;14.87;62.23;96434.09;5103368;28;19976;-72
2023/06/17 01:43:35;;;;;;;;;;;;;;;14.84;63.47;96431.91;5103075;28;19953;-73
2023/06/17 01:46:01;;;;;;;;;;;;;;;14.81;63.67;96433.22;5103409;28;19955;-72
2023/06/17 01:48:27;;;;;;;;;;;;;;;14.76;63.12;96439.22;5103328;28;19956;-72
2023/06/17 01:50:53;;;;;;;;;;;;;;;14.70;63.82;96432.28;5103031;28;19954;-72
2023/06/17 01:53:19;;;;;;;;;;;;;;;14.67;63.37;96438.03;5104527;28;20298;-77
2023/06/17 01:55:45;;;;;;;;;;;;;;;14.61;63.44;96433.72;5103107;28;20047;-78
2023/06/17 01:58:11;;;;;;;;;;;;;;;14.55;63.47;96430.25;5103213;28;20011;-77
2023/06/17 02:00:37;;;;;;;;;;;;;;;14.51;63.32;96430.91;5104519;28;19942;-77
2023/06/17 02:03:03;;;;;;;;;;;;;;;14.48;64.15;96431.41;5104676;28;19965;-77
2023/06/17 02:05:28;;;;;;;;;;;;;;;14.48;63.11;96423.50;5104860;28;19983;-78
2023/06/17 02:07:56;;;;;;;;;;;;;;;14.44;64.59;96435.59;5104639;28;19958;-78
2023/06/17 02:10:22;;;;;;;;;;;;;;;14.40;64.32;96428.16;5104148;28;19959;-70
2023/06/17 02:12:48;;;;;;;;;;;;;;;14.38;64.12;96430.25;5103165;28;19952;-78
2023/06/17 02:15:14;;;;;;;;;;;;;;;14.33;64.71;96430.16;5104104;28;19967;-77
2023/06/17 02:17:41;;;;;;;;;;;;;;;14.32;65.16;96435.66;5104362;28;19994;-77
2023/06/17 02:20:09;;;;;;;;;;;;;;;14.25;64.49;96430.56;5104376;28;19962;-77
2023/06/17 02:22:35;;;;;;;;;;;;;;;14.23;64.75;96423.94;5103047;28;19961;-77
2023/06/17 02:25:02;;;;;;;;;;;;;;;14.18;64.98;96420.19;5105575;28;19956;-77
2023/06/17 02:27:28;;;;;;;;;;;;;;;14.16;66.14;96424.09;5108133;28;19959;-77
2023/06/17 02:29:54;;;;;;;;;;;;;;;14.12;65.31;96423.78;5108322;28;19941;-71
2023/06/17 02:32:20;;;;;;;;;;;;;;;14.09;65.73;96420.81;5107013;28;19964;-69
2023/06/17 02:34:47;;;;;;;;;;;;;;;14.04;65.47;96421.53;5108166;28;19955;-70
2023/06/17 02:37:14;;;;;;;;;;;;;;;14.01;66.17;96416.75;5107603;28;20247;-70
2023/06/17 02:39:40;;;;;;;;;;;;;;;13.96;66.77;96409.56;5106641;28;19953;-69
2023/06/17 02:42:07;;;;;;;;;;;;;;;13.92;66.42;96413.72;5107607;28;20130;-70
2023/06/17 02:44:33;;;;;;;;;;;;;;;13.88;66.47;96407.34;5107578;28;19964;-70
2023/06/17 02:46:59;;;;;;;;;;;;;;;13.84;66.64;96406.22;5107830;28;19951;-71
2023/06/17 02:49:25;;;;;;;;;;;;;;;13.79;66.93;96411.38;5107809;28;19961;-77
2023/06/17 02:51:51;;;;;;;;;;;;;;;13.76;66.26;96409.25;5106222;28;20125;-78
2023/06/17 02:54:17;;;;;;;;;;;;;;;13.75;66.01;96410.28;5106214;28;20025;-77
2023/06/17 02:56:43;;;;;;;;;;;;;;;13.73;66.95;96415.81;5107520;28;19968;-77
2023/06/17 02:59:08;;;;;;;;;;;;;;;13.71;67.22;96411.78;5107763;28;19935;-77
2023/06/17 03:01:39;;;;;;;;;;;;;;;13.68;67.36;96425.44;5107863;28;19953;-77
2023/06/17 03:04:05;;;;;;;;;;;;;;;13.62;67.40;96424.56;5105879;28;19958;-72
2023/06/17 03:06:34;;;;;;;;;;;;;;;13.58;66.99;96423.41;5107395;28;19955;-72
2023/06/17 03:09:00;;;;;;;;;;;;;;;13.54;68.01;96425.75;5106116;28;19951;-77
2023/06/17 03:11:28;;;;;;;;;;;;;;;13.52;68.20;96424.38;5106118;28;19972;-77
2023/06/17 03:13:54;;;;;;;;;;;;;;;13.45;67.81;96416.63;5107577;28;19951;-77
2023/06/17 03:16:23;;;;;;;;;;;;;;;13.44;67.86;96425.56;5105860;28;19966;-76
2023/06/17 03:18:48;;;;;;;;;;;;;;;13.43;67.85;96417.91;5107148;28;19952;-77
2023/06/17 03:21:14;;;;;;;;;;;;;;;13.40;67.58;96424.44;5107160;28;19960;-77
2023/06/17 03:23:40;;;;;;;;;;;;;;;13.35;69.11;96425.13;5105755;28;19963;-73
2023/06/17 03:26:07;;;;;;;;;;;;;;;13.31;68.65;96424.03;5105867;28;19976;-70
2023/06/17 03:28:32;;;;;;;;;;;;;;;13.29;68.54;96431.38;5105933;28;19964;-70
2023/06/17 03:30:58;;;;;;;;;;;;;;;13.26;69.00;96428.34;5106910;28;19953;-70
2023/06/17 03:33:24;;;;;;;;;;;;;;;13.25;68.82;96426.75;5106381;28;20026;-70
2023/06/17 03:35:50;;;;;;;;;;;;;;;13.22;68.95;96429.88;5106368;28;19965;-70
2023/06/17 03:38:16;;;;;;;;;;;;;;;13.19;70.32;96439.03;5105090;28;19957;-70
2023/06/17 03:40:42;;;;;;;;;;;;;;;13.17;69.31;96428.72;5106611;28;19959;-74
2023/06/17 03:43:08;;;;;;;;;;;;;;;13.15;68.64;96430.00;5106612;28;20024;-76
2023/06/17 03:45:35;;;;;;;;;;;;;;;13.16;69.24;96437.66;5106483;28;19950;-76
2023/06/17 03:48:01;;;;;;;;;;;;;;;13.17;69.68;96439.25;5106964;28;19964;-76
2023/06/17 03:50:27;;;;;;;;;;;;;;;13.18;69.91;96438.22;5106616;28;19949;-76
2023/06/17 03:52:53;;;;;;;;;;;;;;;13.18;69.32;96435.59;5106457;28;19958;-76
2023/06/17 03:55:18;;;;;;;;;;;;;;;13.18;69.76;96437.41;5106342;28;20258;-76
2023/06/17 03:57:45;;;;;;;;;;;;;;;13.17;70.01;96434.00;5106219;28;19968;-76
2023/06/17 04:00:11;;;;;;;;;;;;;;;13.18;70.34;96435.59;5105896;28;19953;-77
2023/06/17 04:02:37;;;;;;;;;;;;;;;13.19;71.09;96447.72;5106336;28;19993;-72
2023/06/17 04:05:04;;;;;;;;;;;;;;;13.19;71.10;96436.41;5087924;28;20143;-71
2023/06/17 04:07:33;;;;;;;;;;;;;;;13.19;70.79;96450.38;5105768;28;19953;-72
2023/06/17 04:09:59;;;;;;;;;;;;;;;13.21;71.51;96444.88;5104528;28;20020;-72
2023/06/17 04:12:24;;;;;;;;;;;;;;;13.23;71.15;96448.06;5087698;28;19957;-71
2023/06/17 04:14:50;;;;;;;;;;;;;;;13.26;71.58;96441.53;5104584;28;19998;-72
2023/06/17 04:17:17;;;;;;;;;;;;;;;13.30;70.82;96445.31;5104600;28;20025;-76
2023/06/17 04:19:43;;;;;;;;;;;;;;;13.35;70.11;96446.19;5105958;28;20237;-73
2023/06/17 04:22:09;;;;;;;;;;;;;;;13.40;70.31;96445.50;5106015;28;20024;-70
2023/06/17 04:24:37;;;;;;;;;;;;;;;13.48;69.72;96444.31;5104296;28;19945;-70
2023/06/17 04:27:05;;;;;;;;;;;;;;;13.55;70.54;96439.72;5104301;28;20138;-70
2023/06/17 04:29:34;;;;;;;;;;;;;;;13.62;70.96;96445.63;5105846;28;19999;-70
2023/06/17 04:32:01;;;;;;;;;;;;;;;13.70;68.89;96436.56;5105340;28;19956;-69
2023/06/17 04:34:27;;;;;;;;;;;;;;;13.74;68.47;96432.41;5105358;28;20251;-70
2023/06/17 04:36:59;;;;;;;;;;;;;;;13.78;68.85;96429.03;5105007;28;19987;-72
2023/06/17 04:39:26;;;;;;;;;;;;;;;13.83;68.62;96430.97;5104454;28;19960;-78
2023/06/17 04:41:53;;;;;;;;;;;;;;;13.87;68.30;96429.44;5105486;28;19952;-78
2023/06/17 04:44:19;;;;;;;;;;;;;;;13.93;67.46;96428.50;5087364;28;20251;-77
2023/06/17 04:46:45;;;;;;;;;;;;;;;13.95;67.45;96425.63;5105317;28;19950;-79
2023/06/17 04:49:11;;;;;;;;;;;;;;;13.93;66.87;96422.44;5104846;28;19965;-76
2023/06/17 04:51:40;;;;;;;;;;;;;;;13.92;66.83;96420.81;5103807;28;20243;-77
2023/06/17 04:54:06;;;;;;;;;;;;;;;13.86;66.98;96424.41;5104853;28;19961;-71
2023/06/17 04:56:32;;;;;;;;;;;;;;;13.89;66.87;96418.69;5087252;28;19966;-72
2023/06/17 04:58:58;;;;;;;;;;;;;;;13.99;67.52;96424.91;5105320;28;19958;-71
2023/06/17 05:01:24;;;;;;;;;;;;;;;14.15;67.71;96427.78;5104915;28;19983;-71
2023/06/17 05:03:50;;;;;;;;;;;;;;;14.24;67.27;96425.53;5105043;28;19970;-71
2023/06/17 05:06:16;;;;;;;;;;;;;;;14.36;66.59;96421.78;5104866;28;19955;-70
2023/06/17 05:08:42;;;;;;;;;;;;;;;14.52;66.73;96428.03;5103947;28;19954;-71
2023/06/17 05:11:07;;;;;;;;;;;;;;;14.61;65.44;96420.53;5103630;28;19955;-71
2023/06/17 05:13:33;;;;;;;;;;;;;;;14.77;65.51;96424.97;5104994;28;19955;-70
2023/06/17 05:15:59;;;;;;;;;;;;;;;14.90;64.93;96421.16;5103525;28;19969;-71
2023/06/17 05:18:25;;;;;;;;;;;;;;;15.10;64.38;96427.72;5103759;28;19962;-71
2023/06/17 05:20:51;;;;;;;;;;;;;;;15.31;64.50;96420.84;5103459;28;19961;-71
2023/06/17 05:23:17;;;;;;;;;;;;;;;15.45;63.89;96419.38;5104944;28;19978;-71
2023/06/17 05:25:42;;;;;;;;;;;;;;;15.52;63.23;96416.56;5104921;28;19992;-71
2023/06/17 05:28:10;;;;;;;;;;;;;;;15.54;63.40;96425.84;5104499;28;19992;-71
2023/06/17 05:30:39;;;;;;;;;;;;;;;15.67;63.75;96419.34;5104728;28;19958;-71
2023/06/17 05:33:04;;;;;;;;;;;;;;;15.87;63.35;96421.38;5104461;28;19957;-70
2023/06/17 05:35:30;;;;;;;;;;;;;;;16.07;62.86;96420.75;5103544;28;19975;-74
2023/06/17 05:37:56;;;;;;;;;;;;;;;16.21;63.29;96427.22;5103519;28;20002;-75
2023/06/17 05:40:22;;;;;;;;;;;;;;;16.42;62.68;96414.91;5104562;28;19952;-74
2023/06/17 05:42:48;;;;;;;;;;;;;;;16.63;62.09;96426.41;5103294;28;20149;-74
2023/06/17 05:45:14;;;;;;;;;;;;;;;16.84;61.15;96410.66;5103429;28;19956;-74
2023/06/17 05:47:39;;;;;;;;;;;;;;;17.07;60.17;96408.63;5104702;28;19991;-75
2023/06/17 05:50:05;;;;;;;;;;;;;;;17.20;60.39;96416.88;5104548;28;19952;-70
2023/06/17 05:52:31;;;;;;;;;;;;;;;17.43;59.55;96410.31;5103718;28;19960;-74
2023/06/17 05:54:57;;;;;;;;;;;;;;;17.61;59.81;96414.31;5103444;28;19996;-74
2023/06/17 05:57:23;;;;;;;;;;;;;;;17.80;58.12;96403.19;5104533;28;19953;-74
2023/06/17 05:59:49;;;;;;;;;;;;;;;18.00;58.33;96408.53;5105561;28;19963;-74
2023/06/17 06:02:15;;;;;;;;;;;;;;;18.16;56.53;96395.25;5108649;28;20252;-75
2023/06/17 06:04:43;;;;;;;;;;;;;;;18.29;55.77;96392.06;5108352;28;20236;-74
2023/06/17 06:07:09;;;;;;;;;;;;;;;18.41;55.44;96397.06;5107366;28;19984;-74
2023/06/17 06:09:35;;;;;;;;;;;;;;;18.51;54.53;96391.72;5108369;28;20288;-71
2023/06/17 06:12:01;;;;;;;;;;;;;;;18.67;53.92;96387.97;5108358;28;19958;-73
2023/06/17 06:14:27;;;;;;;;;;;;;;;18.86;54.65;96395.38;5107210;28;19951;-72
2023/06/17 06:16:52;;;;;;;;;;;;;;;19.06;54.07;96399.78;5089962;28;19968;-72
2023/06/17 06:19:18;;;;;;;;;;;;;;;19.24;53.68;96395.72;5108337;28;19950;-73
2023/06/17 06:21:44;;;;;;;;;;;;;;;19.43;52.56;96399.34;5108354;28;20273;-73
2023/06/17 06:24:10;;;;;;;;;;;;;;;19.64;52.09;96393.88;5108174;28;19965;-73
2023/06/17 06:26:36;;;;;;;;;;;;;;;19.73;51.56;96386.94;5107245;28;20000;-79
2023/06/17 06:29:02;;;;;;;;;;;;;;;19.89;50.96;96384.94;5108306;28;19968;-70
2023/06/17 06:31:28;;;;;;;;;;;;;;;20.04;51.09;96392.78;5107699;28;20259;-70
2023/06/17 06:33:54;;;;;;;;;;;;;;;20.19;51.17;96404.38;5107802;28;19990;-71
2023/06/17 06:36:19;;;;;;;;;;;;;;;20.31;50.32;96396.81;5107736;28;20147;-70
2023/06/17 06:38:46;;;;;;;;;;;;;;;20.36;49.82;96395.97;5106489;28;19967;-70
2023/06/17 06:41:11;;;;;;;;;;;;;;;20.45;50.14;96402.25;5107920;28;20276;-70
2023/06/17 06:43:37;;;;;;;;;;;;;;;20.58;49.56;96400.81;5107829;28;19957;-70
2023/06/17 06:46:03;;;;;;;;;;;;;;;20.71;49.88;96402.84;5107840;28;20139;-70
2023/06/17 06:48:29;;;;;;;;;;;;;;;20.84;49.79;96404.81;5107304;28;19958;-73
2023/06/17 06:50:58;;;;;;;;;;;;;;;21.05;47.90;96394.69;5107902;28;19946;-73
2023/06/17 06:53:24;;;;;;;;;;;;;;;21.16;48.44;96400.66;5106301;28;19952;-73
2023/06/17 06:55:50;;;;;;;;;;;;;;;21.31;48.20;96406.88;5106421;28;19971;-73
2023/06/17 06:58:16;;;;;;;;;;;;;;;21.41;47.57;96406.75;5107617;28;19958;-73
2023/06/17 07:00:41;;;;;;;;;;;;;;;21.35;46.64;96410.56;5089140;28;19953;-72
2023/06/17 07:03:07;;;;;;;;;;;;;;;21.28;46.97;96418.94;5088991;28;20116;-77
2023/06/17 07:05:33;;;;;;;;;;;;;;;21.32;47.77;96416.50;5107533;28;20168;-70
2023/06/17 07:07:59;;;;;;;;;;;;;;;21.39;47.45;96417.72;5105895;28;19958;-78
2023/06/17 07:10:25;;;;;;;;;;;;;;;21.49;46.39;96416.81;5105045;28;19952;-78
2023/06/17 07:12:51;;;;;;;;;;;;;;;21.60;48.44;96420.13;5107296;28;19956;-77
2023/06/17 07:15:17;;;;;;;;;;;;;;;21.72;45.60;96419.69;5107134;28;19961;-77
2023/06/17 07:17:43;;;;;;;;;;;;;;;21.84;46.12;96417.38;5107195;28;19963;-77
2023/06/17 07:20:09;;;;;;;;;;;;;;;22.02;46.26;96419.19;5105496;28;19943;-77
2023/06/17 07:22:35;;;;;;;;;;;;;;;22.25;46.00;96420.19;5106933;28;19956;-75
2023/06/17 07:25:01;;;;;;;;;;;;;;;22.38;44.76;96418.63;5105989;28;19957;-71
2023/06/17 07:27:26;;;;;;;;;;;;;;;22.52;45.07;96424.00;5106640;28;19960;-71
2023/06/17 07:29:55;;;;;;;;;;;;;;;22.62;44.06;96415.03;5105787;28;19961;-71
2023/06/17 07:32:21;;;;;;;;;;;;;;;22.72;44.11;96419.34;5106573;28;19959;-71
2023/06/17 07:34:48;;;;;;;;;;;;;;;22.79;42.26;96417.09;5106940;28;20101;-71
2023/06/17 07:37:14;;;;;;;;;;;;;;;22.86;42.80;96410.25;5106991;28;19990;-71
2023/06/17 07:39:40;;;;;;;;;;;;;;;22.88;43.74;96413.41;5105357;28;20232;-77
2023/06/17 07:42:06;;;;;;;;;;;;;;;22.85;42.29;96414.03;5106769;28;19959;-71
2023/06/17 07:44:32;;;;;;;;;;;;;;;22.88;43.12;96410.75;5105245;28;19977;-77
2023/06/17 07:46:58;;;;;;;;;;;;;;;23.01;42.68;96403.84;5105200;28;20307;-78
2023/06/17 07:49:24;;;;;;;;;;;;;;;23.12;42.77;96401.75;5106582;28;19960;-77
2023/06/17 07:51:50;;;;;;;;;;;;;;;23.28;42.13;96404.88;5105499;28;19963;-77
2023/06/17 07:54:16;;;;;;;;;;;;;;;23.24;40.93;96406.59;5105279;28;20004;-78
2023/06/17 07:56:42;;;;;;;;;;;;;;;23.34;41.42;96410.94;5105988;28;19991;-77
2023/06/17 07:59:11;;;;;;;;;;;;;;;23.53;42.06;96410.78;5105106;28;20253;-80
2023/06/17 08:01:37;;;;;;;;;;;;;;;23.63;40.32;96405.19;5106108;28;19956;-77
2023/06/17 08:04:06;;;;;;;;;;;;;;;23.74;41.07;96406.53;5104731;28;19979;-77
2023/06/17 08:06:32;;;;;;;;;;;;;;;23.85;40.06;96407.13;5105086;28;19957;-77
2023/06/17 08:08:58;;;;;;;;;;;;;;;24.00;40.52;96408.63;5104837;28;19952;-77
2023/06/17 08:11:27;;;;;;;;;;;;;;;24.22;40.51;96407.84;5106106;28;19965;-77
2023/06/17 08:13:52;;;;;;;;;;;;;;;24.30;38.42;96401.75;5106077;28;19954;-77
2023/06/17 08:16:18;;;;;;;;;;;;;;;24.35;39.96;96400.81;5105995;28;20321;-71
2023/06/17 08:18:44;;;;;;;;;;;;;;;24.55;39.84;96400.31;5087617;28;19947;-76
2023/06/17 08:21:10;;;;;;;;;;;;;;;24.70;39.24;96391.84;5104839;28;20027;-71
2023/06/17 08:23:36;;;;;;;;;;;;;;;24.91;38.30;96394.75;5087968;28;19962;-71
2023/06/17 08:26:02;;;;;;;;;;;;;;;25.04;38.51;96390.38;5083580;28;19965;-71
2023/06/17 08:28:28;;;;;;;;;;;;;;;25.26;38.64;96391.38;5050295;28;19957;-71
2023/06/17 08:30:54;;;;;;;;;;;;;;;25.35;38.05;96391.41;5083213;28;19972;-71
2023/06/17 08:33:20;;;;;;;;;;;;;;;25.42;36.71;96384.44;5066342;28;19988;-70
2023/06/17 08:35:46;;;;;;;;;;;;;;;25.49;35.82;96383.97;5083425;28;20340;-77
2023/06/17 08:38:11;;;;;;;;;;;;;;;25.55;37.01;96384.63;5083158;28;19971;-76
2023/06/17 08:40:38;;;;;;;;;;;;;;;25.66;37.24;96384.00;5083185;28;19979;-76
2023/06/17 08:43:03;;;;;;;;;;;;;;;25.78;36.32;96387.91;5066285;28;19963;-76
2023/06/17 08:45:29;;;;;;;;;;;;;;;25.88;35.49;96384.91;5082962;28;19960;-76
2023/06/17 08:47:56;;;;;;;;;;;;;;;25.80;34.13;96383.03;5082741;28;19951;-77
2023/06/17 08:50:24;;;;;;;;;;;;;;;25.88;35.90;96385.69;5050084;28;19982;-77
2023/06/17 08:52:50;;;;;;;;;;;;;;;26.03;33.16;96373.69;5083178;28;19954;-77
2023/06/17 08:55:16;;;;;;;;;;;;;;;26.03;33.42;96381.75;5083159;28;20044;-73
2023/06/17 08:57:43;;;;;;;;;;;;;;;26.09;31.75;96382.38;5099059;28;19969;-77
2023/06/17 09:00:12;;;;;;;;;;;;;;;25.95;31.00;96379.09;5104993;28;19964;-77
2023/06/17 09:02:39;;;;;;;;;;;;;;;25.95;35.26;96387.13;5105209;28;19961;-77
2023/06/17 09:05:05;;;;;;;;;;;;;;;26.02;31.76;96379.41;5105197;28;19964;-77
2023/06/17 09:07:31;;;;;;;;;;;;;;;26.28;33.18;96377.41;5104983;28;19956;-77
2023/06/17 09:10:03;;;;;;;;;;;;;;;26.41;30.28;96375.63;5103634;28;20173;-77
2023/06/17 09:12:34;;;;;;;;;;;;;;;26.51;31.75;96372.59;5105248;28;19952;-76
2023/06/17 09:15:00;;;;;;;;;;;;;;;26.66;31.99;96375.88;5104675;28;19942;-78
2023/06/17 09:17:30;;;;;;;;;;;;;;;26.88;31.63;96364.88;5103927;28;19976;-77
2023/06/17 09:20:08;;;;;;;;;;;;;;;27.04;32.66;96362.38;5103870;28;19961;-78
2023/06/17 09:22:35;;;;;;;;;;;;;;;27.28;31.68;96369.88;5103735;28;19971;-77
2023/06/17 09:25:01;;;;;;;;;;;;;;;27.36;28.99;96364.72;5103220;28;19948;-77
2023/06/17 09:27:27;;;;;;;;;;;;;;;27.12;30.07;96355.38;5104646;28;20269;-77
2023/06/17 09:30:06;;;;;;;;;;;;;;;26.86;30.50;96363.63;5103282;28;19962;-72
2023/06/17 09:32:42;;;;;;;;;;;;;;;26.82;29.01;96360.00;5103392;28;20251;-73
2023/06/17 09:35:11;;;;;;;;;;;;;;;26.86;30.54;96366.31;5102823;28;19953;-81
2023/06/17 09:37:37;;;;;;;;;;;;;;;27.02;29.30;96359.22;5103835;28;19980;-81
2023/06/17 09:40:06;;;;;;;;;;;;;;;27.24;29.17;96354.69;5103574;28;19958;-82
2023/06/17 09:42:33;;;;;;;;;;;;;;;27.19;31.47;96352.16;5104755;28;19960;-82
2023/06/17 09:45:03;;;;;;;;;;;;;;;27.14;29.40;96355.84;5104864;28;20009;-81
2023/06/17 09:47:34;;;;;;;;;;;;;;;27.11;31.02;96351.91;5102480;28;20182;-84
2023/06/17 09:50:20;;;;;;;;;;;;;;;27.19;33.05;96358.31;5104429;28;19974;-71
2023/06/17 09:52:48;;;;;;;;;;;;;;;27.00;29.35;96350.69;5104745;28;19960;-71
2023/06/17 09:55:14;;;;;;;;;;;;;;;26.74;30.67;96358.91;5103244;28;19978;-71
2023/06/17 09:57:43;;;;;;;;;;;;;;;26.42;30.37;96353.03;5104462;28;19967;-72
2023/06/17 10:00:10;;;;;;;;;;;;;;;26.44;29.05;96342.72;5103621;28;19966;-71
2023/06/17 10:02:39;;;;;;;;;;;;;;;26.64;31.64;96349.31;5103577;28;19956;-71
2023/06/17 10:05:11;;;;;;;;;;;;;;;26.90;28.98;96343.81;5103671;28;19968;-71
2023/06/17 10:07:37;;;;;;;;;;;;;;;27.13;28.21;96336.22;5103339;28;19956;-78
2023/06/17 10:10:03;;;;;;;;;;;;;;;27.36;27.37;96333.19;5104183;28;19966;-73
2023/06/17 10:12:30;;;;;;;;;;;;;;;27.47;28.49;96336.31;5102957;28;19961;-73
2023/06/17 10:14:58;;;;;;;;;;;;;;;27.36;28.01;96322.44;5104432;28;19960;-73
2023/06/17 10:17:25;;;;;;;;;;;;;;;27.43;25.65;96321.91;5103017;28;19963;-74
2023/06/17 10:19:51;;;;;;;;;;;;;;;27.54;27.35;96331.94;5104406;28;19964;-71
2023/06/17 10:22:20;;;;;;;;;;;;;;;27.68;27.04;96325.50;5102897;28;19965;-74
2023/06/17 10:24:49;;;;;;;;;;;;;;;27.80;26.64;96335.50;5103805;28;19951;-74
2023/06/17 10:27:15;;;;;;;;;;;;;;;27.82;24.98;96331.34;5103288;28;20225;-82
2023/06/17 10:29:42;;;;;;;;;;;;;;;27.83;26.26;96324.88;5103820;28;19954;-77
2023/06/17 10:32:08;;;;;;;;;;;;;;;27.99;25.09;96326.94;5086227;28;19968;-77
2023/06/17 10:34:34;;;;;;;;;;;;;;;27.99;26.71;96327.75;5085771;28;19989;-77
2023/06/17 10:37:03;;;;;;;;;;;;;;;27.93;27.07;96337.16;5102482;28;19978;-77
2023/06/17 10:39:29;;;;;;;;;;;;;;;27.98;26.78;96334.25;5102925;28;19968;-77
2023/06/17 10:41:57;;;;;;;;;;;;;;;28.13;26.35;96338.22;5102962;28;20166;-77
2023/06/17 10:44:26;;;;;;;;;;;;;;;28.31;26.84;96325.34;5104057;28;19951;-73
2023/06/17 10:46:52;;;;;;;;;;;;;;;28.31;26.36;96320.72;5105183;28;19967;-73
2023/06/17 10:49:18;;;;;;;;;;;;;;;28.34;23.93;96314.63;5107218;28;19971;-74
2023/06/17 10:51:47;;;;;;;;;;;;;;;28.37;26.27;96329.38;5107715;28;19944;-73
2023/06/17 10:54:13;;;;;;;;;;;;;;;28.54;25.54;96318.41;5107423;28;19960;-72
2023/06/17 10:57:05;;;;;;;;;;;;;;;28.74;25.06;96313.22;5106404;28;19965;-70
2023/06/17 10:59:31;;;;;;;;;;;;;;;28.96;24.29;96309.25;5103382;28;19956;-70
2023/06/17 11:02:02;;;;;;;;;;;;;;;29.20;24.95;96313.81;5107363;28;20237;-70
2023/06/17 11:04:31;;;;;;;;;;;;;;;29.29;21.67;96305.59;5107404;28;20158;-72
2023/06/17 11:06:58;;;;;;;;;;;;;;;29.20;22.60;96310.34;5106019;28;19953;-73
2023/06/17 11:09:25;;;;;;;;;;;;;;;29.28;23.83;96312.13;5106049;28;19965;-73
2023/06/17 11:11:52;;;;;;;;;;;;;;;29.29;22.67;96308.28;5106736;28;19956;-72
2023/06/17 11:14:18;;;;;;;;;;;;;;;29.19;23.19;96301.47;5105570;28;19949;-74
2023/06/17 11:16:44;;;;;;;;;;;;;;;29.03;24.57;96311.38;5107222;28;19973;-71
2023/06/17 11:19:12;;;;;;;;;;;;;;;28.95;25.70;96304.97;5106183;28;19957;-70
2023/06/17 11:21:38;;;;;;;;;;;;;;;29.02;26.10;96301.69;5107159;28;20113;-75
2023/06/17 11:24:04;;;;;;;;;;;;;;;29.16;22.12;96304.84;5105977;28;19955;-77
2023/06/17 11:26:30;;;;;;;;;;;;;;;29.27;24.07;96303.25;5088567;28;19963;-77
2023/06/17 11:28:56;;;;;;;;;;;;;;;29.47;23.02;96303.38;5106790;28;19954;-76
2023/06/17 11:31:25;;;;;;;;;;;;;;;29.73;23.28;96295.66;5106606;28;19971;-77
2023/06/17 11:33:58;;;;;;;;;;;;;;;29.87;24.21;96299.84;5105524;28;20148;-79
2023/06/17 11:36:24;;;;;;;;;;;;;;;29.87;21.64;96287.09;5106716;28;19954;-77
2023/06/17 11:38:51;;;;;;;;;;;;;;;29.80;23.95;96299.66;5105237;28;19961;-77
2023/06/17 11:41:17;;;;;;;;;;;;;;;29.66;23.17;96295.41;5088259;28;19940;-72
2023/06/17 11:43:43;;;;;;;;;;;;;;;29.53;22.59;96293.91;5105897;28;20333;-73
2023/06/17 11:46:09;;;;;;;;;;;;;;;29.53;22.95;96293.91;5106620;28;20246;-72
2023/06/17 11:48:35;;;;;;;;;;;;;;;29.72;23.72;96296.75;5106485;28;19960;-72
2023/06/17 11:51:01;;;;;;;;;;;;;;;29.83;23.58;96288.16;5106022;28;19951;-73
2023/06/17 11:53:28;;;;;;;;;;;;;;;29.75;24.78;96285.25;5105321;28;19966;-72
2023/06/17 11:55:54;;;;;;;;;;;;;;;29.38;23.39;96286.53;5104889;28;19966;-73
2023/06/17 11:58:19;;;;;;;;;;;;;;;29.25;21.70;96273.09;5104496;28;19962;-75
2023/06/17 12:00:45;;;;;;;;;;;;;;;29.35;22.96;96279.91;5106236;28;19956;-83
2023/06/17 12:03:12;;;;;;;;;;;;;;;29.59;23.91;96278.22;5106367;28;19960;-81
2023/06/17 12:05:38;;;;;;;;;;;;;;;29.83;23.12;96266.53;5106360;28;20164;-79
2023/06/17 12:08:04;;;;;;;;;;;;;;;29.75;21.54;96277.13;5106219;28;20140;-81
2023/06/17 12:10:36;;;;;;;;;;;;;;;29.32;22.40;96277.91;5106116;28;19976;-79
2023/06/17 12:13:03;;;;;;;;;;;;;;;28.84;23.46;96283.06;5105899;28;19956;-80
2023/06/17 12:15:30;;;;;;;;;;;;;;;28.62;22.93;96281.66;5105964;28;19954;-76
2023/06/17 12:18:09;;;;;;;;;;;;;;;28.64;22.68;96278.59;5105926;28;19978;-72
2023/06/17 12:20:35;;;;;;;;;;;;;;;28.83;24.19;96276.09;5104857;28;20142;-75
2023/06/17 12:23:01;;;;;;;;;;;;;;;28.77;23.64;96280.16;5105859;28;20152;-76
2023/06/17 12:25:27;;;;;;;;;;;;;;;28.47;23.73;96274.97;5104525;28;19953;-75
2023/06/17 12:27:53;;;;;;;;;;;;;;;28.30;24.09;96277.91;5105717;28;20308;-76
2023/06/17 12:30:18;;;;;;;;;;;;;;;28.34;24.05;96278.78;5106326;28;19953;-76
2023/06/17 12:32:45;;;;;;;;;;;;;;;28.64;23.70;96276.69;5105654;28;19960;-75
2023/06/17 12:35:11;;;;;;;;;;;;;;;28.96;21.59;96257.97;5105659;28;19949;-71
2023/06/17 12:37:40;;;;;;;;;;;;;;;29.29;23.27;96257.78;5104703;28;20127;-71
2023/06/17 12:40:07;;;;;;;;;;;;;;;29.48;21.45;96254.41;5105623;28;20293;-71
2023/06/17 12:42:33;;;;;;;;;;;;;;;29.63;21.14;96255.59;5105224;28;19965;-71
2023/06/17 12:44:59;;;;;;;;;;;;;;;29.83;21.24;96245.69;5105715;28;19981;-72